Absarokee, Montana
Current Conditions -  °F | °C
As of 6:53 PM on Friday 28 Nov 2014 (Local Time) from KBIL Reporting Station
Clear Clear  
Wind Chill: 11°   Ceiling: Unl
Heat Index: 11°   Visibility: 10mi
Dew Point: -6°   Wind: 13mph
Humidity: 32%   Direction: 240°WSW
Pressure: 29.43"   Gusts: NA
Location:  45.53°N, 109.43°W
Report Text: KBIL 290153Z 24011KT 10SM CLR 11/M06 A2943 RMK AO2 SLP958 T01061056
Loading
Personal Weather Stations






























Interactive Weather Map New forecast layout! Learn more

10-Day Weather Forecast

Advertisements
Track Severe Weather on mobile